createdAt,value
2017-10-18T00:06:27.095Z,10.0
2017-10-18T00:16:41.174Z,10.0
2017-10-18T00:26:55.361Z,9.9
2017-10-18T00:37:07.725Z,9.8
2017-10-18T00:47:26.064Z,9.8
2017-10-18T00:57:40.189Z,9.7
2017-10-18T02:18:48.430Z,10.8
2017-10-18T02:29:02.711Z,10.8
2017-10-18T02:39:16.981Z,10.7
2017-10-18T02:49:30.960Z,10.6
2017-10-18T03:00:14.908Z,10.7
2017-10-18T03:10:59.602Z,10.8
2017-10-18T03:21:13.859Z,10.8
2017-10-18T03:32:01.676Z,10.9
2017-10-18T03:42:16.102Z,10.9
2017-10-18T03:52:30.450Z,11.0
2017-10-18T04:02:44.345Z,11.0
2017-10-18T04:12:57.737Z,11.1
2017-10-18T04:23:09.137Z,11.2
2017-10-18T04:33:53.995Z,11.3
2017-10-18T04:44:08.319Z,11.3
2017-10-18T04:54:22.081Z,11.4
2017-10-18T05:04:50.872Z,11.4
2017-10-18T05:15:10.205Z,11.4
2017-10-18T05:25:35.613Z,11.4
2017-10-18T05:36:01.897Z,11.4
2017-10-18T05:46:51.020Z,11.2
2017-10-18T05:57:08.905Z,11.2
2017-10-18T06:07:20.539Z,11.0
2017-10-18T06:17:44.510Z,10.9
2017-10-18T06:28:09.787Z,10.8
2017-10-18T06:38:26.640Z,10.8
2017-10-18T06:49:19.306Z,10.8
2017-10-18T06:59:33.391Z,10.8
2017-10-18T07:09:48.501Z,10.8
2017-10-18T07:20:40.048Z,11.1
2017-10-18T07:31:35.444Z,11.4
2017-10-18T07:41:57.990Z,11.4
2017-10-18T07:52:42.246Z,13.4
2017-10-18T08:03:29.848Z,14.5
2017-10-18T08:14:14.301Z,15.2
2017-10-18T08:24:28.486Z,15.2
2017-10-18T08:34:42.755Z,15.5
2017-10-18T08:44:57.687Z,15.7
2017-10-18T08:55:21.508Z,16.0
2017-10-18T09:05:44.210Z,16.2
2017-10-18T09:16:30.471Z,16.7
2017-10-18T09:26:50.314Z,16.7
2017-10-18T09:38:25.250Z,17.1
2017-10-18T09:48:43.120Z,17.0
2017-10-18T09:58:56.910Z,17.2
2017-10-18T10:09:11.217Z,17.3
2017-10-18T10:19:25.349Z,17.4
2017-10-18T10:29:39.775Z,17.6
2017-10-18T10:40:24.387Z,18.0
2017-10-18T10:50:38.438Z,18.1
2017-10-18T11:00:51.958Z,18.4
2017-10-18T11:11:06.171Z,18.8
2017-10-18T11:21:18.352Z,19.1
2017-10-18T11:31:32.711Z,19.4
2017-10-18T11:41:46.688Z,19.6
2017-10-18T11:52:00.102Z,20.1
2017-10-18T12:02:49.885Z,22.4
2017-10-18T12:13:41.878Z,23.7
2017-10-18T12:24:31.742Z,25.0
2017-10-18T12:34:46.332Z,25.0
2017-10-18T12:45:00.181Z,25.8
2017-10-18T12:55:14.408Z,26.4
2017-10-18T13:05:59.087Z,27.1
2017-10-18T13:16:13.134Z,27.2
2017-10-18T13:26:27.403Z,27.5
2017-10-18T13:36:41.421Z,27.7
2017-10-18T13:46:55.977Z,27.9
2017-10-18T13:57:09.863Z,28.1
2017-10-18T14:07:59.252Z,28.2
2017-10-18T14:18:13.644Z,28.2
2017-10-18T14:29:00.484Z,28.0
2017-10-18T14:39:50.122Z,27.8
2017-10-18T14:50:33.913Z,27.5
2017-10-18T15:01:18.639Z,27.0
2017-10-18T15:12:11.600Z,26.3
2017-10-18T15:22:27.601Z,26.3
2017-10-18T15:33:11.382Z,24.8
2017-10-18T15:43:22.868Z,24.8
2017-10-18T15:54:07.586Z,23.4
2017-10-18T16:04:21.910Z,23.4
2017-10-18T16:15:06.567Z,22.0
2017-10-18T16:25:51.371Z,21.3
2017-10-18T16:36:05.658Z,21.3
2017-10-18T16:46:19.918Z,20.7
2017-10-18T16:56:34.089Z,20.1
2017-10-18T17:06:48.158Z,19.5
2017-10-18T17:17:01.562Z,18.9
2017-10-18T17:27:17.075Z,18.5
2017-10-18T17:38:02.069Z,17.5
2017-10-18T17:48:16.356Z,17.5
2017-10-18T17:58:32.815Z,17.3
2017-10-18T18:08:49.667Z,17.0
2017-10-18T18:19:07.079Z,16.8
2017-10-18T18:29:25.839Z,16.6
2017-10-18T18:39:52.065Z,16.4
2017-10-18T18:50:07.501Z,16.3
2017-10-18T19:00:24.144Z,16.1
2017-10-18T19:10:41.162Z,16.0
2017-10-18T19:22:04.722Z,15.8
2017-10-18T19:32:21.088Z,15.8
2017-10-18T19:42:41.639Z,15.7
2017-10-18T19:53:02.176Z,15.5
2017-10-18T20:03:20.855Z,15.4
2017-10-18T20:13:37.733Z,15.4
2017-10-18T20:23:54.055Z,15.2
2017-10-18T20:34:12.477Z,15.1
2017-10-18T20:44:58.504Z,15.0
2017-10-18T20:55:18.875Z,15.0
2017-10-18T21:05:42.792Z,14.9
2017-10-18T21:16:02.514Z,14.9
2017-10-18T21:26:19.373Z,14.8
2017-10-18T21:37:13.061Z,14.6
2017-10-18T21:48:07.423Z,14.5
2017-10-18T21:58:57.315Z,14.5
2017-10-18T22:09:48.099Z,14.4
2017-10-18T22:20:02.251Z,14.4
2017-10-18T22:30:16.843Z,14.3
2017-10-18T22:40:30.864Z,14.2
2017-10-18T22:50:45.112Z,14.1
2017-10-18T23:00:59.087Z,14.0
2017-10-18T23:11:12.570Z,13.9
2017-10-18T23:21:24.992Z,13.7
2017-10-18T23:32:09.681Z,13.5
2017-10-18T23:42:20.815Z,13.5
2017-10-18T23:52:35.004Z,13.3
